Herbert C Jackson — WL3972 — position and weather

sailwx.info

Track history (hours):
 
Tides and Currents Weather Stations Pressure Air Temp Water Temp Dewpoint Dewpoint Depression Visibility Wind Speed Wind Dir Waves Ship Positions

Herbert C Jackson

Owner: THE INTERLAKE STEAMSHIP COMPANY, Middleburg Heights, OH. More information available from US FCC via Universal Licensing System and Coast Guard Vessel Documentation Center.

Last reported at 2015-Aug-30 09:00 UTC. Time now 2015-Aug-30 09:56 UTC.
Position N 45°18' W 083°24'.

Length 239 m; draft 7.9 m.

Type: Cargo ship. MMSI: 366904930.

Wind from 240 at 6 knots

Barometer 1017.1 mb
Air temperature 16.7 ° C
Water temperature 15.8 ° C

Date/timePositionNaut miles runAvg speedWind from/ knotsBaromVisibWave heightAir tempDewpointWater temp
2015-Aug-30 09:00N 45°18' W 083°24'0 0.0 240 / 61017.1 16.7 15.8
2015-Aug-30 08:00N 45°18' W 083°24'0 0.0 250 / 81017.1 16.6 15.8
2015-Aug-30 07:00N 45°18' W 083°24'0 0.0 230 / 101016.7 16.8 15.8
2015-Aug-30 06:00N 45°18' W 083°24'0 0.0 240 / 91017.1 17.4 15.8
2015-Aug-30 05:00N 45°18' W 083°24'0 0.0 230 / 101017.4 18.0 15.9
2015-Aug-30 04:00N 45°18' W 083°24'0 0.0 190 / 71017.7 17.9 15.9
2015-Aug-30 03:00N 45°18' W 083°24'0 0.0 200 / 61017.7 18.1 16.0
2015-Aug-30 02:00N 45°18' W 083°24'0 0.0 180 / 41018.1 18.4 16.0
2015-Aug-30 01:00N 45°18' W 083°24'0 0.0 160 / 61017.7 18.4 16.1
2015-Aug-30 00:00N 45°18' W 083°24'0 0.0 160 / 81017.1 18.9 15.9
2015-Aug-29 23:00N 45°18' W 083°24'0 0.0 150 / 101017.1 18.9 15.9
2015-Aug-29 22:00N 45°18' W 083°24'0 0.0 160 / 111017.1 21.2 16.0
2015-Aug-29 21:00N 45°18' W 083°24'0 0.0 150 / 121017.4 20.5 16.0
2015-Aug-29 20:00N 45°18' W 083°24'7 7.3 170 / 81018.1 19.8 15.9
2015-Aug-29 19:00N 45°12' W 083°18'1010.4 190 / 171018.8 17.2 15.9
2015-Aug-29 18:00N 45°06' W 083°06'1312.7 220 / 111019.4 17.3 15.9
2015-Aug-29 17:00N 44°54' W 083°00'1818.5 230 / 81019.810.8 0.517.4 16.8
2015-Aug-29 16:00N 44°36' W 082°54'1312.7 220 / 41020.1 17.7 16.9
2015-Aug-29 15:00N 44°24' W 082°48'2512.7 330 / 51019.4 17.5 16.7
2015-Aug-29 13:00N 44°00' W 082°36'1312.8 270 / 161020.1 18.3 17.9
2015-Aug-29 12:00N 43°48' W 082°30'1212.0 260 / 161020.4 18.1 17.7
2015-Aug-29 11:00N 43°36' W 082°30'1212.0 290 / 141019.4 18.0 18.0
2015-Aug-29 10:00N 43°24' W 082°30'1312.8 260 / 171019.8 18.3 18.0
2015-Aug-29 09:00N 43°12' W 082°24'1212.0 240 / 131019.8 17.9 17.8
2015-Aug-29 08:00N 43°00' W 082°24'50 9.9 200 / 41020.1 18.0 18.1
2015-Aug-29 03:00N 42°18' W 083°00'4 2.2 130 / 61020.6 19.0 18.9
2015-Aug-29 01:00N 42°18' W 083°06'0 0.0 160 / 41020.3 20.2 19.1
2015-Aug-29 00:00N 42°18' W 083°06'0 0.0 180 / 81019.9 21.1 18.6
2015-Aug-28 23:00N 42°18' W 083°06'0 0.0 180 / 61019.9 21.5 18.7
2015-Aug-28 22:00N 42°18' W 083°06'0 0.0 170 / 81020.3 22.3 19.0
2015-Aug-28 21:00N 42°18' W 083°06'0 0.0 160 / 81020.6 22.6 19.0
2015-Aug-28 20:00N 42°18' W 083°06'11 2.7 160 / 81020.9 22.6 18.9
2015-Aug-28 16:00N 42°24' W 082°54'1110.7 080 / 51023.3 18.1 18.2
2015-Aug-28 15:00N 42°30' W 082°42'7 7.5 120 / 91023.3 17.5 17.6
2015-Aug-28 14:00N 42°36' W 082°36'7 7.4 100 / 41023.2 16.4 18.0
2015-Aug-28 13:00N 42°42' W 082°30'0 0.0 090 / 21023.2 14.7 18.3
2015-Aug-28 12:00N 42°42' W 082°30'0 0.0 080 / 31023.2 13.4 18.3
2015-Aug-28 11:00N 42°42' W 082°30'0 0.0 050 / 31023.2 12.6 18.3
2015-Aug-28 10:00N 42°42' W 082°30'0 0.0 300 / 21022.8 11.4 18.3
2015-Aug-28 09:00N 42°42' W 082°30'0 0.0 120 / 21022.1 13.4 18.3
2015-Aug-28 08:00N 42°42' W 082°30'6 6.0 220 / 11022.1 12.4 18.2
2015-Aug-28 07:00N 42°48' W 082°30'1312.8 120 / 31021.5 13.2 18.1
2015-Aug-28 06:00N 43°00' W 082°24'18 9.0 200 / 21021.5 14.9 18.1
2015-Aug-28 04:00N 43°18' W 082°24'1212.0 180 / 311021.5 17.4 17.7
2015-Aug-28 03:00N 43°30' W 082°24'3612.1 180 / 81021.5 17.4 18.3
2015-Aug-28 00:00N 44°06' W 082°30'1312.7 130 / 71020.8 16.4 17.7
2015-Aug-27 23:00N 44°18' W 082°36'1312.7 150 / 31021.5 15.9 17.5
2015-Aug-27 22:00N 44°30' W 082°42'5213.1 110 / 31021.1 15.8 16.7
2015-Aug-27 18:00N 45°18' W 083°12'8 8.4 350 / 91022.1 14.7 15.7
2015-Aug-27 17:00N 45°18' W 083°24'0 0.0 300 / 81022.1 14.5 15.6
2015-Aug-27 16:00N 45°18' W 083°24'0 0.0 300 / 101022.5 14.0 16.0
2015-Aug-27 15:00N 45°18' W 083°24'0 0.0 270 / 101022.5 13.6 15.9
2015-Aug-27 13:00N 45°18' W 083°24'0 0.0 240 / 61022.1 13.2 16.1
2015-Aug-27 12:00N 45°18' W 083°24'0 0.0 260 / 41021.5 13.0 16.1
2015-Aug-27 11:00N 45°18' W 083°24'0 0.0 280 / 41021.1 13.0 16.0
2015-Aug-27 09:00N 45°18' W 083°24'0 0.0 260 / 61020.1 13.6 16.1
2015-Aug-27 08:00N 45°18' W 083°24'0 0.0 300 / 111019.8 14.4 16.0
2015-Aug-27 07:00N 45°18' W 083°24'0 0.0 300 / 121019.8 14.6 15.9
2015-Aug-27 06:00N 45°18' W 083°24'0 0.0 310 / 131019.4 14.5 15.9
2015-Aug-27 05:00N 45°18' W 083°24'4 0.5 310 / 161019.4 14.5 15.8
2015-Aug-26 21:00N 45°18' W 083°18'7 7.3 300 / 231016.7 15.1 15.8
2015-Aug-26 20:00N 45°12' W 083°12'7 7.3 300 / 271017.1 15.0 16.3
2015-Aug-26 19:00N 45°06' W 083°06'13 6.4 300 / 231016.710.8 1.015.1 16.3
2015-Aug-26 17:00N 44°54' W 083°00'6 2.0 300 / 151017.7 14.4 14.8
2015-Aug-26 14:00N 45°00' W 083°00'6 6.0 280 / 171017.1 12.8 15.4
2015-Aug-26 13:00N 44°54' W 083°00'13 6.4 290 / 241016.0 13.3 15.2
2015-Aug-26 11:00N 44°42' W 082°54'25 6.4 280 / 221015.0 13.5 17.2
2015-Aug-26 07:00N 44°18' W 082°42'6 6.0 280 / 231014.0 14.2 17.3
2015-Aug-26 06:00N 44°12' W 082°42'7 7.4 280 / 201014.7 14.6 17.9
2015-Aug-26 05:00N 44°06' W 082°36'6 6.0 290 / 211014.3 15.3 18.0
2015-Aug-26 04:00N 44°00' W 082°36'7 7.4 280 / 191014.7 15.9 18.2
2015-Aug-26 03:00N 43°54' W 082°30'1212.0 260 / 181014.7 15.7 18.1
2015-Aug-26 02:00N 43°42' W 082°30'6 6.0 250 / 171014.7 15.0 16.0
2015-Aug-26 01:00N 43°36' W 082°30'6 6.0 250 / 171014.7 14.5 17.8
2015-Aug-26 00:00N 43°30' W 082°30'6 6.0 250 / 141014.0 15.9 15.8
2015-Aug-25 23:00N 43°24' W 082°30'5410.8 250 / 131014.0 15.9 18.5
2015-Aug-25 18:00N 42°30' W 082°36'29 9.5 250 / 101013.8 17.3 18.3
2015-Aug-25 15:00N 42°12' W 083°06'18 9.0 270 / 111014.2 16.2 20.1
2015-Aug-25 13:00N 41°54' W 083°06'18 9.0 290 / 201013.7 15.9 21.3
2015-Aug-25 11:00N 41°42' W 083°24'0 0.0 260 / 71013.7 15.8 21.7
2015-Aug-25 10:00N 41°42' W 083°24'0 0.0 250 / 81013.4 15.8 21.8
2015-Aug-25 09:00N 41°42' W 083°24'0 0.0 260 / 61013.0 15.6 21.8
2015-Aug-25 08:00N 41°42' W 083°24'0 0.0 240 / 51013.0 16.0 21.8
2015-Aug-25 06:00N 41°42' W 083°24'11 5.4 280 / 41013.4 16.7 21.8
2015-Aug-25 04:00N 41°48' W 083°12'7 7.5 310 / 181012.4 17.2 21.3
2015-Aug-25 03:00N 41°54' W 083°06'0 0.0 330 / 291011.7 18.8 21.5
2015-Aug-25 01:00N 41°54' W 083°06'0 0.0 270 / 161012.0 21.6 21.5
2015-Aug-25 00:00N 41°54' W 083°06'0 0.0 250 / 171012.0 22.1 21.5
2015-Aug-24 23:00N 41°54' W 083°06'6 6.0 250 / 241010.7 22.2 21.4
2015-Aug-24 22:00N 42°00' W 083°06'1212.0 250 / 191011.0 22.1 20.8
2015-Aug-24 21:00N 42°12' W 083°06'6 6.0 260 / 171010.8 22.3 20.6
2015-Aug-24 20:00N 42°18' W 083°06'1110.7 210 / 201010.1 22.0 20.7
2015-Aug-24 19:00N 42°24' W 082°54'1110.7 250 / 181010.1 21.6 20.2
2015-Aug-24 18:00N 42°30' W 082°42'1110.7 230 / 201010.1 21.4 19.2
2015-Aug-24 17:00N 42°36' W 082°30'6 6.0 220 / 211010.3 21.0 19.0
2015-Aug-24 16:00N 42°42' W 082°30'1212.0 220 / 171010.3 20.4 18.6
2015-Aug-24 15:00N 42°54' W 082°30'1312.8 210 / 101011.0 19.6 18.6
2015-Aug-24 14:00N 43°06' W 082°24'6 6.0 240 / 131011.0 17.7 18.3
2015-Aug-24 13:00N 43°12' W 082°24'1212.0 230 / 161010.3 16.6 19.1
2015-Aug-24 12:00N 43°24' W 082°24'1312.8 220 / 161009.6 15.6 18.6
2015-Aug-24 11:00N 43°36' W 082°30'1212.0 210 / 151009.3 15.8 19.1
2015-Aug-24 10:00N 43°48' W 082°30'1312.8 230 / 181008.6 16.0 18.7
2015-Aug-24 09:00N 44°00' W 082°36'1212.0 240 / 171008.3 16.8 18.5
2015-Aug-24 08:00N 44°12' W 082°36'6412.7 260 / 261008.6 18.2 18.5
2015-Aug-24 03:00N 45°12' W 083°06'1514.7 220 / 161006.9 17.9 17.2
2015-Aug-24 02:00N 45°24' W 083°18'3620.3 250 / 141006.9 18.6 16.9
2015-Aug-24 00:14N 45°53' W 083°49'2 1.3
2015-Aug-23 23:00N 45°54' W 083°48'7 7.3 140 / 231004.9 19.0 16.2
2015-Aug-23 22:00N 46°00' W 083°54'1514.6 130 / 231005.2 19.1 18.0
2015-Aug-23 21:00N 46°12' W 084°06'7 7.3 140 / 211005.9 19.6 18.1
2015-Aug-23 20:00N 46°18' W 084°12'13 6.3 130 / 91008.3 18.7 17.5
2015-Aug-23 18:00N 46°30' W 084°18'4 4.1 130 / 151007.9 23.0 17.3
2015-Aug-23 17:00N 46°30' W 084°24'4 4.1 120 / 161009.5 23.1 17.2
2015-Aug-23 16:00N 46°30' W 084°30'8 8.3 140 / 221010.2 23.1 16.7
2015-Aug-23 15:00N 46°30' W 084°42'1312.7 140 / 281007.8 22.0 16.8
2015-Aug-23 14:00N 46°42' W 084°48'1010.2 130 / 271007.8 19.8 16.5
2015-Aug-23 13:00N 46°48' W 085°00'1212.3 150 / 241008.5 19.2 15.6
2015-Aug-23 12:00N 46°48' W 085°18'1212.3 120 / 191009.5 17.7 14.2
2015-Aug-23 11:00N 46°48' W 085°36'1212.3 140 / 171009.5 18.1 13.0
2015-Aug-23 10:00N 46°48' W 085°54'1616.4 140 / 221010.2 19.4 15.5
2015-Aug-23 09:00N 46°48' W 086°18'1010.2 160 / 181010.2 18.6 11.8
2015-Aug-23 08:00N 46°42' W 086°30'1616.5 160 / 171009.8 18.5 13.6
2015-Aug-23 07:00N 46°42' W 086°54'1413.7 170 / 241010.2 19.8 15.0
2015-Aug-23 06:00N 46°36' W 087°12'8 8.2 180 / 281010.2 20.5 15.5
2015-Aug-23 05:00N 46°36' W 087°24'0 0.0 200 / 161011.5 21.9 16.0
2015-Aug-23 04:00N 46°36' W 087°24'0 0.0 160 / 171011.9 22.1 17.4
2015-Aug-23 03:00N 46°36' W 087°24'0 0.0 150 / 131011.5 22.0 17.7
2015-Aug-23 01:00N 46°36' W 087°24'0 0.0 160 / 161011.2 22.8 17.9
2015-Aug-23 00:00N 46°36' W 087°24'0 0.0 160 / 171011.9 23.4 19.3
2015-Aug-22 23:00N 46°36' W 087°24'0 0.0 140 / 151011.9 24.2 18.6
2015-Aug-22 22:00N 46°36' W 087°24'0 0.0 150 / 181012.5 26.7 18.8
2015-Aug-22 21:00N 46°36' W 087°24'0 0.0 150 / 171012.5 26.5 18.5
2015-Aug-22 20:00N 46°36' W 087°24'0 0.0 150 / 111012.9 27.1 18.5
2015-Aug-22 19:00N 46°36' W 087°24'0 0.0 150 / 151013.2 26.7 18.2
2015-Aug-22 18:00N 46°36' W 087°24'0 0.0 140 / 91014.2 26.0 15.9
2015-Aug-22 17:00N 46°36' W 087°24'0 0.0 180 / 81015.6 25.3 16.0
2015-Aug-22 16:00N 46°36' W 087°24'0 0.0 150 / 71015.6 23.6 16.1
2015-Aug-22 15:00N 46°36' W 087°24'0 0.0 150 / 41015.6 22.4 16.2
2015-Aug-22 14:00N 46°36' W 087°24'810.0 130 / 31015.9 19.4 16.3
2015-Aug-22 13:10N 46°35' W 087°12'847.9
2015-Aug-22 13:00N 46°36' W 087°24'1829.9 130 / 81016.3 18.6 16.8
2015-Aug-22 12:23N 46°37' W 086°58'1435.5
2015-Aug-22 12:00N 46°36' W 087°18'2455.3 160 / 121016.3 18.2 15.8
2015-Aug-22 11:33N 46°39' W 086°43'1221.4
2015-Aug-22 11:00N 46°36' W 087°00'2746.2 180 / 211015.2 19.3 14.9
2015-Aug-22 10:25N 46°42' W 086°22'1331.7
2015-Aug-22 10:00N 46°42' W 086°42'1212.3 190 / 201015.2 19.3 13.0
2015-Aug-22 09:00N 46°42' W 086°24'1212.3 180 / 171015.6 18.5 14.1
2015-Aug-22 08:00N 46°42' W 086°06'1413.7 180 / 221015.2 19.3 16.2
2015-Aug-22 07:00N 46°48' W 085°48'3523.3 180 / 221015.2 19.2 14.9
2015-Aug-22 05:30N 46°47' W 084°57'1020.4
2015-Aug-22 05:00N 46°48' W 085°12'2045.5 160 / 151016.6 17.6 16.3
2015-Aug-22 04:33N 46°37' W 084°48'1220.6
2015-Aug-22 04:00N 46°48' W 084°54'2353.1 160 / 201017.3 18.1 16.7
2015-Aug-22 03:33N 46°29' W 084°35'1120.3
2015-Aug-22 03:00N 46°36' W 084°48'18 8.8 150 / 171017.9 18.1 16.8
2015-Aug-22 01:00N 46°30' W 084°24'4 4.1 160 / 71017.6 18.9 17.4
2015-Aug-22 00:00N 46°30' W 084°18'0 0.0 180 / 21017.7 21.0 17.7
2015-Aug-21 23:00N 46°30' W 084°18'1312.7 210 / 61017.4 21.6 17.3
2015-Aug-21 22:00N 46°18' W 084°12'4 4.1 200 / 121017.7 21.6 17.7
2015-Aug-21 21:00N 46°18' W 084°06'1328.0 190 / 41017.7 21.3 17.9
2015-Aug-21 20:33N 46°06' W 084°01'1 1.2
2015-Aug-21 20:00N 46°06' W 084°00'813.7 170 / 81018.1 20.5 18.2
2015-Aug-21 19:23N 45°59' W 083°53'1 2.3
2015-Aug-21 19:00N 46°00' W 083°54'816.9 210 / 121018.4 18.5 16.2
2015-Aug-21 18:32N 45°54' W 083°47'4 6.6
2015-Aug-21 18:00N 45°54' W 083°42'1413.9 240 / 151018.1 16.5 16.0
2015-Aug-21 17:00N 45°48' W 083°24'33 1.9 250 / 191017.7 15.9 15.6
2015-Aug-21 00:00N 45°18' W 083°06'1212.0 250 / 261007.6 19.3 17.9
2015-Aug-20 23:00N 45°06' W 083°06'1312.7 240 / 261007.2 19.4 17.0
2015-Aug-20 22:00N 44°54' W 083°00'1312.7 240 / 201006.6 20.3 18.2
2015-Aug-20 21:00N 44°42' W 082°54'1312.7 260 / 171005.9 20.6 18.6
2015-Aug-20 20:00N 44°30' W 082°48'2512.7 220 / 301006.2 21.0 18.7
2015-Aug-20 18:00N 44°06' W 082°36'1918.5 220 / 231006.9 20.4 19.0
2015-Aug-20 17:00N 43°48' W 082°30'1212.0 230 / 231007.2 20.3 18.8
2015-Aug-20 16:00N 43°36' W 082°30'1212.0 220 / 221007.2 20.2 18.8
2015-Aug-20 15:00N 43°24' W 082°30'1312.8 220 / 191007.6 20.1 19.2
2015-Aug-20 14:00N 43°12' W 082°24'1212.0 230 / 171007.6 19.5 19.7
2015-Aug-20 13:00N 43°00' W 082°24'1312.8 240 / 91007.6 18.7 19.7
2015-Aug-20 12:00N 42°48' W 082°30'6 6.0 230 / 91007.6 19.2 20.0
2015-Aug-20 11:00N 42°42' W 082°30'1312.8 240 / 61007.2 19.1 20.2
2015-Aug-20 10:00N 42°30' W 082°36'1110.7 270 / 71006.4 20.3 20.7
2015-Aug-20 09:00N 42°24' W 082°48'   270 / 161006.0 20.6 22.6
Track history (hours):
 
Tides and Currents Weather Stations Pressure Air Temp Water Temp Dewpoint Dewpoint Depression Visibility Wind Speed Wind Dir Waves Ship Positions

Herbert C Jackson

Owner: THE INTERLAKE STEAMSHIP COMPANY, Middleburg Heights, OH. More information available from US FCC via Universal Licensing System and Coast Guard Vessel Documentation Center.

Last reported at 2015-Aug-30 09:00 UTC. Time now 2015-Aug-30 09:56 UTC.
Position N 45°18' W 083°24'.

Length 239 m; draft 7.9 m.

Type: Cargo ship. MMSI: 366904930.

Wind from 240 at 6 knots

Barometer 1017.1 mb
Air temperature 16.7 ° C
Water temperature 15.8 ° C

Date/timePositionNaut miles runAvg speedWind from/ knotsBaromVisibWave heightAir tempDewpointWater temp
2015-Aug-30 09:00N 45°18' W 083°24'0 0.0 240 / 61017.1 16.7 15.8
2015-Aug-30 08:00N 45°18' W 083°24'0 0.0 250 / 81017.1 16.6 15.8
2015-Aug-30 07:00N 45°18' W 083°24'0 0.0 230 / 101016.7 16.8 15.8
2015-Aug-30 06:00N 45°18' W 083°24'0 0.0 240 / 91017.1 17.4 15.8
2015-Aug-30 05:00N 45°18' W 083°24'0 0.0 230 / 101017.4 18.0 15.9
2015-Aug-30 04:00N 45°18' W 083°24'0 0.0 190 / 71017.7 17.9 15.9
2015-Aug-30 03:00N 45°18' W 083°24'0 0.0 200 / 61017.7 18.1 16.0
2015-Aug-30 02:00N 45°18' W 083°24'0 0.0 180 / 41018.1 18.4 16.0
2015-Aug-30 01:00N 45°18' W 083°24'0 0.0 160 / 61017.7 18.4 16.1
2015-Aug-30 00:00N 45°18' W 083°24'0 0.0 160 / 81017.1 18.9 15.9
2015-Aug-29 23:00N 45°18' W 083°24'0 0.0 150 / 101017.1 18.9 15.9
2015-Aug-29 22:00N 45°18' W 083°24'0 0.0 160 / 111017.1 21.2 16.0
2015-Aug-29 21:00N 45°18' W 083°24'0 0.0 150 / 121017.4 20.5 16.0
2015-Aug-29 20:00N 45°18' W 083°24'7 7.3 170 / 81018.1 19.8 15.9
2015-Aug-29 19:00N 45°12' W 083°18'1010.4 190 / 171018.8 17.2 15.9
2015-Aug-29 18:00N 45°06' W 083°06'1312.7 220 / 111019.4 17.3 15.9
2015-Aug-29 17:00N 44°54' W 083°00'1818.5 230 / 81019.810.8 0.517.4 16.8
2015-Aug-29 16:00N 44°36' W 082°54'1312.7 220 / 41020.1 17.7 16.9
2015-Aug-29 15:00N 44°24' W 082°48'2512.7 330 / 51019.4 17.5 16.7
2015-Aug-29 13:00N 44°00' W 082°36'1312.8 270 / 161020.1 18.3 17.9
2015-Aug-29 12:00N 43°48' W 082°30'1212.0 260 / 161020.4 18.1 17.7
2015-Aug-29 11:00N 43°36' W 082°30'1212.0 290 / 141019.4 18.0 18.0
2015-Aug-29 10:00N 43°24' W 082°30'1312.8 260 / 171019.8 18.3 18.0
2015-Aug-29 09:00N 43°12' W 082°24'1212.0 240 / 131019.8 17.9 17.8
2015-Aug-29 08:00N 43°00' W 082°24'50 9.9 200 / 41020.1 18.0 18.1
2015-Aug-29 03:00N 42°18' W 083°00'4 2.2 130 / 61020.6 19.0 18.9
2015-Aug-29 01:00N 42°18' W 083°06'0 0.0 160 / 41020.3 20.2 19.1
2015-Aug-29 00:00N 42°18' W 083°06'0 0.0 180 / 81019.9 21.1 18.6
2015-Aug-28 23:00N 42°18' W 083°06'0 0.0 180 / 61019.9 21.5 18.7
2015-Aug-28 22:00N 42°18' W 083°06'0 0.0 170 / 81020.3 22.3 19.0
2015-Aug-28 21:00N 42°18' W 083°06'0 0.0 160 / 81020.6 22.6 19.0
2015-Aug-28 20:00N 42°18' W 083°06'11 2.7 160 / 81020.9 22.6 18.9
2015-Aug-28 16:00N 42°24' W 082°54'1110.7 080 / 51023.3 18.1 18.2
2015-Aug-28 15:00N 42°30' W 082°42'7 7.5 120 / 91023.3 17.5 17.6
2015-Aug-28 14:00N 42°36' W 082°36'7 7.4 100 / 41023.2 16.4 18.0
2015-Aug-28 13:00N 42°42' W 082°30'0 0.0 090 / 21023.2 14.7 18.3
2015-Aug-28 12:00N 42°42' W 082°30'0 0.0 080 / 31023.2 13.4 18.3
2015-Aug-28 11:00N 42°42' W 082°30'0 0.0 050 / 31023.2 12.6 18.3
2015-Aug-28 10:00N 42°42' W 082°30'0 0.0 300 / 21022.8 11.4 18.3
2015-Aug-28 09:00N 42°42' W 082°30'0 0.0 120 / 21022.1 13.4 18.3
2015-Aug-28 08:00N 42°42' W 082°30'6 6.0 220 / 11022.1 12.4 18.2
2015-Aug-28 07:00N 42°48' W 082°30'1312.8 120 / 31021.5 13.2 18.1
2015-Aug-28 06:00N 43°00' W 082°24'18 9.0 200 / 21021.5 14.9 18.1
2015-Aug-28 04:00N 43°18' W 082°24'1212.0 180 / 311021.5 17.4 17.7
2015-Aug-28 03:00N 43°30' W 082°24'3612.1 180 / 81021.5 17.4 18.3
2015-Aug-28 00:00N 44°06' W 082°30'1312.7 130 / 71020.8 16.4 17.7
2015-Aug-27 23:00N 44°18' W 082°36'1312.7 150 / 31021.5 15.9 17.5
2015-Aug-27 22:00N 44°30' W 082°42'5213.1 110 / 31021.1 15.8 16.7
2015-Aug-27 18:00N 45°18' W 083°12'8 8.4 350 / 91022.1 14.7 15.7
2015-Aug-27 17:00N 45°18' W 083°24'0 0.0 300 / 81022.1 14.5 15.6
2015-Aug-27 16:00N 45°18' W 083°24'0 0.0 300 / 101022.5 14.0 16.0
2015-Aug-27 15:00N 45°18' W 083°24'0 0.0 270 / 101022.5 13.6 15.9
2015-Aug-27 13:00N 45°18' W 083°24'0 0.0 240 / 61022.1 13.2 16.1
2015-Aug-27 12:00N 45°18' W 083°24'0 0.0 260 / 41021.5 13.0 16.1
2015-Aug-27 11:00N 45°18' W 083°24'0 0.0 280 / 41021.1 13.0 16.0
2015-Aug-27 09:00N 45°18' W 083°24'0 0.0 260 / 61020.1 13.6 16.1
2015-Aug-27 08:00N 45°18' W 083°24'0 0.0 300 / 111019.8 14.4 16.0
2015-Aug-27 07:00N 45°18' W 083°24'0 0.0 300 / 121019.8 14.6 15.9
2015-Aug-27 06:00N 45°18' W 083°24'0 0.0 310 / 131019.4 14.5 15.9
2015-Aug-27 05:00N 45°18' W 083°24'4 0.5 310 / 161019.4 14.5 15.8
2015-Aug-26 21:00N 45°18' W 083°18'7 7.3 300 / 231016.7 15.1 15.8
2015-Aug-26 20:00N 45°12' W 083°12'7 7.3 300 / 271017.1 15.0 16.3
2015-Aug-26 19:00N 45°06' W 083°06'13 6.4 300 / 231016.710.8 1.015.1 16.3
2015-Aug-26 17:00N 44°54' W 083°00'6 2.0 300 / 151017.7 14.4 14.8
2015-Aug-26 14:00N 45°00' W 083°00'6 6.0 280 / 171017.1 12.8 15.4
2015-Aug-26 13:00N 44°54' W 083°00'13 6.4 290 / 241016.0 13.3 15.2
2015-Aug-26 11:00N 44°42' W 082°54'25 6.4 280 / 221015.0 13.5 17.2
2015-Aug-26 07:00N 44°18' W 082°42'6 6.0 280 / 231014.0 14.2 17.3
2015-Aug-26 06:00N 44°12' W 082°42'7 7.4 280 / 201014.7 14.6 17.9
2015-Aug-26 05:00N 44°06' W 082°36'6 6.0 290 / 211014.3 15.3 18.0
2015-Aug-26 04:00N 44°00' W 082°36'7 7.4 280 / 191014.7 15.9 18.2
2015-Aug-26 03:00N 43°54' W 082°30'1212.0 260 / 181014.7 15.7 18.1
2015-Aug-26 02:00N 43°42' W 082°30'6 6.0 250 / 171014.7 15.0 16.0
2015-Aug-26 01:00N 43°36' W 082°30'6 6.0 250 / 171014.7 14.5 17.8
2015-Aug-26 00:00N 43°30' W 082°30'6 6.0 250 / 141014.0 15.9 15.8
2015-Aug-25 23:00N 43°24' W 082°30'5410.8 250 / 131014.0 15.9 18.5
2015-Aug-25 18:00N 42°30' W 082°36'29 9.5 250 / 101013.8 17.3 18.3
2015-Aug-25 15:00N 42°12' W 083°06'18 9.0 270 / 111014.2 16.2 20.1
2015-Aug-25 13:00N 41°54' W 083°06'18 9.0 290 / 201013.7 15.9 21.3
2015-Aug-25 11:00N 41°42' W 083°24'0 0.0 260 / 71013.7 15.8 21.7
2015-Aug-25 10:00N 41°42' W 083°24'0 0.0 250 / 81013.4 15.8 21.8
2015-Aug-25 09:00N 41°42' W 083°24'0 0.0 260 / 61013.0 15.6 21.8
2015-Aug-25 08:00N 41°42' W 083°24'0 0.0 240 / 51013.0 16.0 21.8
2015-Aug-25 06:00N 41°42' W 083°24'11 5.4 280 / 41013.4 16.7 21.8
2015-Aug-25 04:00N 41°48' W 083°12'7 7.5 310 / 181012.4 17.2 21.3
2015-Aug-25 03:00N 41°54' W 083°06'0 0.0 330 / 291011.7 18.8 21.5
2015-Aug-25 01:00N 41°54' W 083°06'0 0.0 270 / 161012.0 21.6 21.5
2015-Aug-25 00:00N 41°54' W 083°06'0 0.0 250 / 171012.0 22.1 21.5
2015-Aug-24 23:00N 41°54' W 083°06'6 6.0 250 / 241010.7 22.2 21.4
2015-Aug-24 22:00N 42°00' W 083°06'1212.0 250 / 191011.0 22.1 20.8
2015-Aug-24 21:00N 42°12' W 083°06'6 6.0 260 / 171010.8 22.3 20.6
2015-Aug-24 20:00N 42°18' W 083°06'1110.7 210 / 201010.1 22.0 20.7
2015-Aug-24 19:00N 42°24' W 082°54'1110.7 250 / 181010.1 21.6 20.2
2015-Aug-24 18:00N 42°30' W 082°42'1110.7 230 / 201010.1 21.4 19.2
2015-Aug-24 17:00N 42°36' W 082°30'6 6.0 220 / 211010.3 21.0 19.0
2015-Aug-24 16:00N 42°42' W 082°30'1212.0 220 / 171010.3 20.4 18.6
2015-Aug-24 15:00N 42°54' W 082°30'1312.8 210 / 101011.0 19.6 18.6
2015-Aug-24 14:00N 43°06' W 082°24'6 6.0 240 / 131011.0 17.7 18.3
2015-Aug-24 13:00N 43°12' W 082°24'1212.0 230 / 161010.3 16.6 19.1
2015-Aug-24 12:00N 43°24' W 082°24'1312.8 220 / 161009.6 15.6 18.6
2015-Aug-24 11:00N 43°36' W 082°30'1212.0 210 / 151009.3 15.8 19.1
2015-Aug-24 10:00N 43°48' W 082°30'1312.8 230 / 181008.6 16.0 18.7
2015-Aug-24 09:00N 44°00' W 082°36'1212.0 240 / 171008.3 16.8 18.5
2015-Aug-24 08:00N 44°12' W 082°36'6412.7 260 / 261008.6 18.2 18.5
2015-Aug-24 03:00N 45°12' W 083°06'1514.7 220 / 161006.9 17.9 17.2
2015-Aug-24 02:00N 45°24' W 083°18'3620.3 250 / 141006.9 18.6 16.9
2015-Aug-24 00:14N 45°53' W 083°49'2 1.3
2015-Aug-23 23:00N 45°54' W 083°48'7 7.3 140 / 231004.9 19.0 16.2
2015-Aug-23 22:00N 46°00' W 083°54'1514.6 130 / 231005.2 19.1 18.0
2015-Aug-23 21:00N 46°12' W 084°06'7 7.3 140 / 211005.9 19.6 18.1
2015-Aug-23 20:00N 46°18' W 084°12'13 6.3 130 / 91008.3 18.7 17.5
2015-Aug-23 18:00N 46°30' W 084°18'4 4.1 130 / 151007.9 23.0 17.3
2015-Aug-23 17:00N 46°30' W 084°24'4 4.1 120 / 161009.5 23.1 17.2
2015-Aug-23 16:00N 46°30' W 084°30'8 8.3 140 / 221010.2 23.1 16.7
2015-Aug-23 15:00N 46°30' W 084°42'1312.7 140 / 281007.8 22.0 16.8
2015-Aug-23 14:00N 46°42' W 084°48'1010.2 130 / 271007.8 19.8 16.5
2015-Aug-23 13:00N 46°48' W 085°00'1212.3 150 / 241008.5 19.2 15.6
2015-Aug-23 12:00N 46°48' W 085°18'1212.3 120 / 191009.5 17.7 14.2
2015-Aug-23 11:00N 46°48' W 085°36'1212.3 140 / 171009.5 18.1 13.0
2015-Aug-23 10:00N 46°48' W 085°54'1616.4 140 / 221010.2 19.4 15.5
2015-Aug-23 09:00N 46°48' W 086°18'1010.2 160 / 181010.2 18.6 11.8
2015-Aug-23 08:00N 46°42' W 086°30'1616.5 160 / 171009.8 18.5 13.6
2015-Aug-23 07:00N 46°42' W 086°54'1413.7 170 / 241010.2 19.8 15.0
2015-Aug-23 06:00N 46°36' W 087°12'8 8.2 180 / 281010.2 20.5 15.5
2015-Aug-23 05:00N 46°36' W 087°24'0 0.0 200 / 161011.5 21.9 16.0
2015-Aug-23 04:00N 46°36' W 087°24'0 0.0 160 / 171011.9 22.1 17.4
2015-Aug-23 03:00N 46°36' W 087°24'0 0.0 150 / 131011.5 22.0 17.7
2015-Aug-23 01:00N 46°36' W 087°24'0 0.0 160 / 161011.2 22.8 17.9
2015-Aug-23 00:00N 46°36' W 087°24'0 0.0 160 / 171011.9 23.4 19.3
2015-Aug-22 23:00N 46°36' W 087°24'0 0.0 140 / 151011.9 24.2 18.6
2015-Aug-22 22:00N 46°36' W 087°24'0 0.0 150 / 181012.5 26.7 18.8
2015-Aug-22 21:00N 46°36' W 087°24'0 0.0 150 / 171012.5 26.5 18.5
2015-Aug-22 20:00N 46°36' W 087°24'0 0.0 150 / 111012.9 27.1 18.5
2015-Aug-22 19:00N 46°36' W 087°24'0 0.0 150 / 151013.2 26.7 18.2
2015-Aug-22 18:00N 46°36' W 087°24'0 0.0 140 / 91014.2 26.0 15.9
2015-Aug-22 17:00N 46°36' W 087°24'0 0.0 180 / 81015.6 25.3 16.0
2015-Aug-22 16:00N 46°36' W 087°24'0 0.0 150 / 71015.6 23.6 16.1
2015-Aug-22 15:00N 46°36' W 087°24'0 0.0 150 / 41015.6 22.4 16.2
2015-Aug-22 14:00N 46°36' W 087°24'810.0 130 / 31015.9 19.4 16.3
2015-Aug-22 13:10N 46°35' W 087°12'847.9
2015-Aug-22 13:00N 46°36' W 087°24'1829.9 130 / 81016.3 18.6 16.8
2015-Aug-22 12:23N 46°37' W 086°58'1435.5
2015-Aug-22 12:00N 46°36' W 087°18'2455.3 160 / 121016.3 18.2 15.8
2015-Aug-22 11:33N 46°39' W 086°43'1221.4
2015-Aug-22 11:00N 46°36' W 087°00'2746.2 180 / 211015.2 19.3 14.9
2015-Aug-22 10:25N 46°42' W 086°22'1331.7
2015-Aug-22 10:00N 46°42' W 086°42'1212.3 190 / 201015.2 19.3 13.0
2015-Aug-22 09:00N 46°42' W 086°24'1212.3 180 / 171015.6 18.5 14.1
2015-Aug-22 08:00N 46°42' W 086°06'1413.7 180 / 221015.2 19.3 16.2
2015-Aug-22 07:00N 46°48' W 085°48'3523.3 180 / 221015.2 19.2 14.9
2015-Aug-22 05:30N 46°47' W 084°57'1020.4
2015-Aug-22 05:00N 46°48' W 085°12'2045.5 160 / 151016.6 17.6 16.3
2015-Aug-22 04:33N 46°37' W 084°48'1220.6
2015-Aug-22 04:00N 46°48' W 084°54'2353.1 160 / 201017.3 18.1 16.7
2015-Aug-22 03:33N 46°29' W 084°35'1120.3
2015-Aug-22 03:00N 46°36' W 084°48'18 8.8 150 / 171017.9 18.1 16.8
2015-Aug-22 01:00N 46°30' W 084°24'4 4.1 160 / 71017.6 18.9 17.4
2015-Aug-22 00:00N 46°30' W 084°18'0 0.0 180 / 21017.7 21.0 17.7
2015-Aug-21 23:00N 46°30' W 084°18'1312.7 210 / 61017.4 21.6 17.3
2015-Aug-21 22:00N 46°18' W 084°12'4 4.1 200 / 121017.7 21.6 17.7
2015-Aug-21 21:00N 46°18' W 084°06'1328.0 190 / 41017.7 21.3 17.9
2015-Aug-21 20:33N 46°06' W 084°01'1 1.2
2015-Aug-21 20:00N 46°06' W 084°00'813.7 170 / 81018.1 20.5 18.2
2015-Aug-21 19:23N 45°59' W 083°53'1 2.3
2015-Aug-21 19:00N 46°00' W 083°54'816.9 210 / 121018.4 18.5 16.2
2015-Aug-21 18:32N 45°54' W 083°47'4 6.6
2015-Aug-21 18:00N 45°54' W 083°42'1413.9 240 / 151018.1 16.5 16.0
2015-Aug-21 17:00N 45°48' W 083°24'33 1.9 250 / 191017.7 15.9 15.6
2015-Aug-21 00:00N 45°18' W 083°06'1212.0 250 / 261007.6 19.3 17.9
2015-Aug-20 23:00N 45°06' W 083°06'1312.7 240 / 261007.2 19.4 17.0
2015-Aug-20 22:00N 44°54' W 083°00'1312.7 240 / 201006.6 20.3 18.2
2015-Aug-20 21:00N 44°42' W 082°54'1312.7 260 / 171005.9 20.6 18.6
2015-Aug-20 20:00N 44°30' W 082°48'2512.7 220 / 301006.2 21.0 18.7
2015-Aug-20 18:00N 44°06' W 082°36'1918.5 220 / 231006.9 20.4 19.0
2015-Aug-20 17:00N 43°48' W 082°30'1212.0 230 / 231007.2 20.3 18.8
2015-Aug-20 16:00N 43°36' W 082°30'1212.0 220 / 221007.2 20.2 18.8
2015-Aug-20 15:00N 43°24' W 082°30'1312.8 220 / 191007.6 20.1 19.2
2015-Aug-20 14:00N 43°12' W 082°24'1212.0 230 / 171007.6 19.5 19.7
2015-Aug-20 13:00N 43°00' W 082°24'1312.8 240 / 91007.6 18.7 19.7
2015-Aug-20 12:00N 42°48' W 082°30'6 6.0 230 / 91007.6 19.2 20.0
2015-Aug-20 11:00N 42°42' W 082°30'1312.8 240 / 61007.2 19.1 20.2
2015-Aug-20 10:00N 42°30' W 082°36'1110.7 270 / 71006.4 20.3 20.7
2015-Aug-20 09:00N 42°24' W 082°48'   270 / 161006.0 20.6 22.6

Dump ship's entire track history